sensor_id;sensor_type;location;lat;lon;timestamp;pressure;altitude;pressure_sealevel;temperature;humidity
2681;BME280;1350;42.134;24.708;2023-04-27T00:01:05;98888.47;;;12.67;85.70
2681;BME280;1350;42.134;24.708;2023-04-27T00:03:32;98892.97;;;12.67;85.79
2681;BME280;1350;42.134;24.708;2023-04-27T00:05:59;98899.97;;;12.68;85.27
2681;BME280;1350;42.134;24.708;2023-04-27T00:08:26;98894.75;;;12.66;85.98
2681;BME280;1350;42.134;24.708;2023-04-27T00:10:55;98913.72;;;12.62;85.76
2681;BME280;1350;42.134;24.708;2023-04-27T00:13:22;98916.59;;;12.59;86.35
2681;BME280;1350;42.134;24.708;2023-04-27T00:15:48;98912.97;;;12.60;85.82
2681;BME280;1350;42.134;24.708;2023-04-27T00:18:15;98914.38;;;12.53;86.89
2681;BME280;1350;42.134;24.708;2023-04-27T00:20:42;98908.84;;;12.56;86.42
2681;BME280;1350;42.134;24.708;2023-04-27T00:23:09;98911.81;;;12.64;85.55
2681;BME280;1350;42.134;24.708;2023-04-27T00:25:35;98923.19;;;12.53;86.71
2681;BME280;1350;42.134;24.708;2023-04-27T00:28:03;98917.47;;;12.47;86.60
2681;BME280;1350;42.134;24.708;2023-04-27T00:30:30;98928.94;;;12.47;87.45
2681;BME280;1350;42.134;24.708;2023-04-27T00:32:57;98926.47;;;12.44;87.54
2681;BME280;1350;42.134;24.708;2023-04-27T00:35:24;98934.56;;;12.43;88.22
2681;BME280;1350;42.134;24.708;2023-04-27T00:37:52;98936.50;;;12.41;88.17
2681;BME280;1350;42.134;24.708;2023-04-27T00:40:19;98934.69;;;12.41;87.77
2681;BME280;1350;42.134;24.708;2023-04-27T00:42:46;98941.81;;;12.41;87.44
2681;BME280;1350;42.134;24.708;2023-04-27T00:45:14;98945.41;;;12.40;86.69
2681;BME280;1350;42.134;24.708;2023-04-27T00:47:41;98948.41;;;12.35;88.81
2681;BME280;1350;42.134;24.708;2023-04-27T00:50:09;98947.53;;;12.35;87.63
2681;BME280;1350;42.134;24.708;2023-04-27T00:52:36;98949.03;;;12.39;87.07
2681;BME280;1350;42.134;24.708;2023-04-27T00:55:04;98945.63;;;12.37;87.36
2681;BME280;1350;42.134;24.708;2023-04-27T00:57:32;98946.50;;;12.25;86.16
2681;BME280;1350;42.134;24.708;2023-04-27T00:59:59;98947.34;;;12.25;86.15
2681;BME280;1350;42.134;24.708;2023-04-27T01:02:28;98944.47;;;12.28;87.01
2681;BME280;1350;42.134;24.708;2023-04-27T01:04:55;98954.69;;;12.22;87.56
2681;BME280;1350;42.134;24.708;2023-04-27T01:07:24;98950.94;;;12.12;86.42
2681;BME280;1350;42.134;24.708;2023-04-27T01:09:51;98949.66;;;12.05;85.98
2681;BME280;1350;42.134;24.708;2023-04-27T01:12:18;98954.78;;;12.08;86.07
2681;BME280;1350;42.134;24.708;2023-04-27T01:14:45;98955.09;;;12.03;87.20
2681;BME280;1350;42.134;24.708;2023-04-27T01:17:11;98965.06;;;12.00;86.06
2681;BME280;1350;42.134;24.708;2023-04-27T01:19:40;98966.97;;;12.10;84.85
2681;BME280;1350;42.134;24.708;2023-04-27T01:22:06;98964.22;;;12.12;84.12
2681;BME280;1350;42.134;24.708;2023-04-27T01:24:35;98976.56;;;12.13;84.30
2681;BME280;1350;42.134;24.708;2023-04-27T01:27:02;98966.78;;;12.01;83.90
2681;BME280;1350;42.134;24.708;2023-04-27T01:29:29;98979.00;;;12.03;81.52
2681;BME280;1350;42.134;24.708;2023-04-27T01:31:55;98985.38;;;12.01;81.56
2681;BME280;1350;42.134;24.708;2023-04-27T01:34:22;98990.38;;;12.05;80.21
2681;BME280;1350;42.134;24.708;2023-04-27T01:36:49;98987.72;;;12.05;82.27
2681;BME280;1350;42.134;24.708;2023-04-27T01:39:16;98988.56;;;12.06;79.92
2681;BME280;1350;42.134;24.708;2023-04-27T01:41:44;98982.50;;;11.91;81.19
2681;BME280;1350;42.134;24.708;2023-04-27T01:44:10;98989.50;;;11.92;80.71
2681;BME280;1350;42.134;24.708;2023-04-27T01:46:37;98997.91;;;11.99;80.59
2681;BME280;1350;42.134;24.708;2023-04-27T01:49:04;98998.13;;;11.96;80.87
2681;BME280;1350;42.134;24.708;2023-04-27T01:51:31;98994.69;;;11.93;81.49
2681;BME280;1350;42.134;24.708;2023-04-27T01:53:58;98991.72;;;11.98;80.93
2681;BME280;1350;42.134;24.708;2023-04-27T01:56:24;98995.34;;;11.97;79.36
2681;BME280;1350;42.134;24.708;2023-04-27T01:58:53;99004.41;;;11.95;80.06
2681;BME280;1350;42.134;24.708;2023-04-27T02:01:20;99003.22;;;11.99;79.41
2681;BME280;1350;42.134;24.708;2023-04-27T02:03:47;99013.09;;;11.97;78.80
2681;BME280;1350;42.134;24.708;2023-04-27T02:06:13;99014.25;;;11.93;78.44
2681;BME280;1350;42.134;24.708;2023-04-27T02:08:40;99014.25;;;11.93;79.07
2681;BME280;1350;42.134;24.708;2023-04-27T02:11:07;99013.59;;;11.89;78.53
2681;BME280;1350;42.134;24.708;2023-04-27T02:13:34;99023.19;;;11.92;77.98
2681;BME280;1350;42.134;24.708;2023-04-27T02:16:02;99008.94;;;11.93;77.52
2681;BME280;1350;42.134;24.708;2023-04-27T02:18:29;99024.13;;;11.90;77.35
2681;BME280;1350;42.134;24.708;2023-04-27T02:20:56;99024.22;;;11.89;75.91
2681;BME280;1350;42.134;24.708;2023-04-27T02:23:23;99028.50;;;11.92;76.46
2681;BME280;1350;42.134;24.708;2023-04-27T02:25:50;99029.75;;;11.86;76.35
2681;BME280;1350;42.134;24.708;2023-04-27T02:28:16;99030.63;;;11.86;75.61
2681;BME280;1350;42.134;24.708;2023-04-27T02:30:43;99029.75;;;11.86;76.32
2681;BME280;1350;42.134;24.708;2023-04-27T02:33:11;99030.06;;;11.81;76.97
2681;BME280;1350;42.134;24.708;2023-04-27T02:35:38;99027.41;;;11.81;76.22
2681;BME280;1350;42.134;24.708;2023-04-27T02:38:05;99036.84;;;11.85;75.98
2681;BME280;1350;42.134;24.708;2023-04-27T02:40:32;99032.75;;;11.94;75.46
2681;BME280;1350;42.134;24.708;2023-04-27T02:42:59;99034.97;;;11.87;74.99
2681;BME280;1350;42.134;24.708;2023-04-27T02:45:25;99044.19;;;11.82;75.42
2681;BME280;1350;42.134;24.708;2023-04-27T02:47:52;99043.03;;;11.86;75.21
2681;BME280;1350;42.134;24.708;2023-04-27T02:50:21;99045.03;;;11.82;75.27
2681;BME280;1350;42.134;24.708;2023-04-27T02:52:47;99037.63;;;11.87;74.88
2681;BME280;1350;42.134;24.708;2023-04-27T02:55:14;99039.91;;;11.79;75.38
2681;BME280;1350;42.134;24.708;2023-04-27T02:57:41;99055.84;;;11.79;75.29
2681;BME280;1350;42.134;24.708;2023-04-27T03:00:09;99047.69;;;11.82;74.70
2681;BME280;1350;42.134;24.708;2023-04-27T03:02:36;99057.59;;;11.80;74.12
2681;BME280;1350;42.134;24.708;2023-04-27T03:05:03;99051.31;;;11.81;74.51
2681;BME280;1350;42.134;24.708;2023-04-27T03:07:31;99056.81;;;11.78;74.28
2681;BME280;1350;42.134;24.708;2023-04-27T03:09:58;99052.91;;;11.84;74.00
2681;BME280;1350;42.134;24.708;2023-04-27T03:12:25;99059.28;;;11.81;73.13
2681;BME280;1350;42.134;24.708;2023-04-27T03:14:52;99062.91;;;11.80;72.99
2681;BME280;1350;42.134;24.708;2023-04-27T03:17:18;99057.91;;;11.88;73.08
2681;BME280;1350;42.134;24.708;2023-04-27T03:19:46;99059.94;;;11.85;72.81
2681;BME280;1350;42.134;24.708;2023-04-27T03:22:13;99068.84;;;11.84;72.16
2681;BME280;1350;42.134;24.708;2023-04-27T03:24:41;99068.22;;;11.80;73.00
2681;BME280;1350;42.134;24.708;2023-04-27T03:27:08;99070.09;;;11.78;72.61
2681;BME280;1350;42.134;24.708;2023-04-27T03:29:35;99074.34;;;11.81;73.80
2681;BME280;1350;42.134;24.708;2023-04-27T03:32:02;99069.03;;;11.81;72.88
2681;BME280;1350;42.134;24.708;2023-04-27T03:34:29;99077.09;;;11.79;73.43
2681;BME280;1350;42.134;24.708;2023-04-27T03:36:56;99074.56;;;11.78;73.09
2681;BME280;1350;42.134;24.708;2023-04-27T03:39:23;99075.31;;;11.80;72.93
2681;BME280;1350;42.134;24.708;2023-04-27T03:41:51;99074.56;;;11.78;73.45
2681;BME280;1350;42.134;24.708;2023-04-27T03:44:17;99076.56;;;11.74;72.90
2681;BME280;1350;42.134;24.708;2023-04-27T03:46:44;99084.53;;;11.74;72.38
2681;BME280;1350;42.134;24.708;2023-04-27T03:49:11;99085.28;;;11.76;73.00
2681;BME280;1350;42.134;24.708;2023-04-27T03:51:38;99077.75;;;11.83;72.73
2681;BME280;1350;42.134;24.708;2023-04-27T03:54:06;99095.16;;;11.74;72.40
2681;BME280;1350;42.134;24.708;2023-04-27T03:56:33;99097.94;;;11.73;72.88
2681;BME280;1350;42.134;24.708;2023-04-27T03:59:02;99100.19;;;11.79;72.13
2681;BME280;1350;42.134;24.708;2023-04-27T04:01:29;99106.81;;;11.72;72.03
2681;BME280;1350;42.134;24.708;2023-04-27T04:03:56;99103.25;;;11.73;72.61
2681;BME280;1350;42.134;24.708;2023-04-27T04:06:23;99104.63;;;11.78;72.62
2681;BME280;1350;42.134;24.708;2023-04-27T04:08:50;99099.47;;;11.89;71.21
2681;BME280;1350;42.134;24.708;2023-04-27T04:11:17;99104.53;;;12.07;83.13
2681;BME280;1350;42.134;24.708;2023-04-27T04:13:43;99106.34;;;12.06;72.62
2681;BME280;1350;42.134;24.708;2023-04-27T04:16:13;99113.84;;;12.00;71.79
2681;BME280;1350;42.134;24.708;2023-04-27T04:18:39;99112.50;;;12.07;70.98
2681;BME280;1350;42.134;24.708;2023-04-27T04:21:08;99118.84;;;12.04;70.90
2681;BME280;1350;42.134;24.708;2023-04-27T04:23:35;99117.81;;;12.07;70.27
2681;BME280;1350;42.134;24.708;2023-04-27T04:26:02;99122.72;;;12.13;69.90
2681;BME280;1350;42.134;24.708;2023-04-27T04:28:29;99129.13;;;12.23;69.41
2681;BME280;1350;42.134;24.708;2023-04-27T04:30:56;99123.28;;;12.18;68.89
2681;BME280;1350;42.134;24.708;2023-04-27T04:33:25;99138.72;;;12.25;68.05
2681;BME280;1350;42.134;24.708;2023-04-27T04:35:52;99127.25;;;12.25;70.26
2681;BME280;1350;42.134;24.708;2023-04-27T04:38:18;99132.34;;;12.28;69.52
2681;BME280;1350;42.134;24.708;2023-04-27T04:40:45;99136.28;;;12.35;68.27
2681;BME280;1350;42.134;24.708;2023-04-27T04:43:12;99132.81;;;12.34;67.34
2681;BME280;1350;42.134;24.708;2023-04-27T04:45:39;99136.19;;;12.36;68.31
2681;BME280;1350;42.134;24.708;2023-04-27T04:48:06;99142.91;;;12.42;67.80
2681;BME280;1350;42.134;24.708;2023-04-27T04:50:34;99148.84;;;12.33;66.99
2681;BME280;1350;42.134;24.708;2023-04-27T04:53:01;99147.47;;;12.40;66.56
2681;BME280;1350;42.134;24.708;2023-04-27T04:55:28;99146.94;;;12.35;67.33
2681;BME280;1350;42.134;24.708;2023-04-27T04:57:54;99159.75;;;12.55;67.40
2681;BME280;1350;42.134;24.708;2023-04-27T05:00:21;99153.50;;;12.56;65.79
2681;BME280;1350;42.134;24.708;2023-04-27T05:02:48;99152.84;;;12.52;66.92
2681;BME280;1350;42.134;24.708;2023-04-27T05:05:15;99163.56;;;12.51;66.96
2681;BME280;1350;42.134;24.708;2023-04-27T05:07:43;99164.94;;;12.44;66.13
2681;BME280;1350;42.134;24.708;2023-04-27T05:10:10;99169.00;;;12.49;66.42
2681;BME280;1350;42.134;24.708;2023-04-27T05:12:37;99172.63;;;12.48;66.37
2681;BME280;1350;42.134;24.708;2023-04-27T05:15:04;99174.31;;;12.49;66.53
2681;BME280;1350;42.134;24.708;2023-04-27T05:17:31;99175.91;;;12.52;66.48
2681;BME280;1350;42.134;24.708;2023-04-27T05:19:58;99177.72;;;12.51;66.27
2681;BME280;1350;42.134;24.708;2023-04-27T05:22:25;99178.56;;;12.52;65.67
2681;BME280;1350;42.134;24.708;2023-04-27T05:24:53;99188.03;;;12.43;65.79
2681;BME280;1350;42.134;24.708;2023-04-27T05:27:20;99185.34;;;12.43;65.28
2681;BME280;1350;42.134;24.708;2023-04-27T05:29:46;99184.50;;;12.43;64.21
2681;BME280;1350;42.134;24.708;2023-04-27T05:32:13;99178.72;;;12.36;64.44
2681;BME280;1350;42.134;24.708;2023-04-27T05:34:40;99183.41;;;12.33;63.85
2681;BME280;1350;42.134;24.708;2023-04-27T05:37:08;99183.41;;;12.33;63.48
2681;BME280;1350;42.134;24.708;2023-04-27T05:39:35;99183.72;;;12.28;63.79
2681;BME280;1350;42.134;24.708;2023-04-27T05:42:03;99187.09;;;12.30;63.55
2681;BME280;1350;42.134;24.708;2023-04-27T05:44:30;99189.56;;;12.33;62.71
2681;BME280;1350;42.134;24.708;2023-04-27T05:46:57;99198.19;;;12.37;63.16
2681;BME280;1350;42.134;24.708;2023-04-27T05:49:23;99201.56;;;12.53;63.11
2681;BME280;1350;42.134;24.708;2023-04-27T05:51:50;99192.00;;;12.63;62.29
2681;BME280;1350;42.134;24.708;2023-04-27T05:54:17;99199.63;;;12.55;62.88
2681;BME280;1350;42.134;24.708;2023-04-27T05:56:44;99195.72;;;12.60;63.62
2681;BME280;1350;42.134;24.708;2023-04-27T05:59:12;99211.44;;;12.51;62.06
2681;BME280;1350;42.134;24.708;2023-04-27T06:01:39;99210.47;;;12.52;63.01
2681;BME280;1350;42.134;24.708;2023-04-27T06:04:06;99209.06;;;12.73;62.98
2681;BME280;1350;42.134;24.708;2023-04-27T06:06:33;99212.25;;;12.78;62.84
2681;BME280;1350;42.134;24.708;2023-04-27T06:09:00;99215.88;;;12.77;62.07
2681;BME280;1350;42.134;24.708;2023-04-27T06:11:26;99216.97;;;12.87;61.88
2681;BME280;1350;42.134;24.708;2023-04-27T06:13:53;99220.59;;;12.86;60.25
2681;BME280;1350;42.134;24.708;2023-04-27T06:16:21;99215.97;;;13.02;61.72
2681;BME280;1350;42.134;24.708;2023-04-27T06:18:48;99210.13;;;13.09;61.01
2681;BME280;1350;42.134;24.708;2023-04-27T06:21:16;99210.66;;;13.14;61.47
2681;BME280;1350;42.134;24.708;2023-04-27T06:23:43;99210.03;;;13.11;60.14
2681;BME280;1350;42.134;24.708;2023-04-27T06:26:09;99213.00;;;13.19;59.91
2681;BME280;1350;42.134;24.708;2023-04-27T06:28:36;99203.72;;;13.12;60.88
2681;BME280;1350;42.134;24.708;2023-04-27T06:31:03;99210.88;;;13.11;61.35
2681;BME280;1350;42.134;24.708;2023-04-27T06:33:32;99224.28;;;13.10;60.86
2681;BME280;1350;42.134;24.708;2023-04-27T06:35:59;99214.91;;;13.17;61.34
2681;BME280;1350;42.134;24.708;2023-04-27T06:38:26;99216.22;;;13.11;60.96
2681;BME280;1350;42.134;24.708;2023-04-27T06:40:53;99217.47;;;13.18;61.47
2681;BME280;1350;42.134;24.708;2023-04-27T06:43:20;99219.81;;;13.23;59.89
2681;BME280;1350;42.134;24.708;2023-04-27T06:45:47;99220.56;;;13.25;60.22
2681;BME280;1350;42.134;24.708;2023-04-27T06:48:14;99219.59;;;13.26;60.35
2681;BME280;1350;42.134;24.708;2023-04-27T06:50:42;99227.16;;;13.32;59.60
2681;BME280;1350;42.134;24.708;2023-04-27T06:53:09;99228.78;;;13.34;60.46
2681;BME280;1350;42.134;24.708;2023-04-27T06:55:36;99221.31;;;13.52;60.39
2681;BME280;1350;42.134;24.708;2023-04-27T06:58:03;99221.63;;;13.60;60.21
2681;BME280;1350;42.134;24.708;2023-04-27T07:00:30;99221.41;;;13.63;59.52
2681;BME280;1350;42.134;24.708;2023-04-27T07:02:56;99225.78;;;13.64;60.04
2681;BME280;1350;42.134;24.708;2023-04-27T07:05:23;99228.88;;;13.71;59.54
2681;BME280;1350;42.134;24.708;2023-04-27T07:07:51;99232.16;;;13.87;59.09
2681;BME280;1350;42.134;24.708;2023-04-27T07:10:18;99225.84;;;14.00;58.74
2681;BME280;1350;42.134;24.708;2023-04-27T07:12:45;99221.44;;;13.99;58.72
2681;BME280;1350;42.134;24.708;2023-04-27T07:15:12;99228.38;;;14.14;58.63
2681;BME280;1350;42.134;24.708;2023-04-27T07:17:39;99222.91;;;14.28;58.97
2681;BME280;1350;42.134;24.708;2023-04-27T07:20:07;99226.78;;;14.48;58.72
2681;BME280;1350;42.134;24.708;2023-04-27T07:22:34;99209.53;;;14.64;57.56
2681;BME280;1350;42.134;24.708;2023-04-27T07:25:02;99219.09;;;14.67;56.71
2681;BME280;1350;42.134;24.708;2023-04-27T07:27:29;99215.91;;;14.85;56.37
2681;BME280;1350;42.134;24.708;2023-04-27T07:29:57;99222.31;;;15.06;55.85
2681;BME280;1350;42.134;24.708;2023-04-27T07:32:24;99222.09;;;15.32;56.65
2681;BME280;1350;42.134;24.708;2023-04-27T07:34:51;99219.50;;;15.54;55.41
2681;BME280;1350;42.134;24.708;2023-04-27T07:37:17;99221.69;;;15.60;54.85
2681;BME280;1350;42.134;24.708;2023-04-27T07:39:44;99223.16;;;15.75;53.06
2681;BME280;1350;42.134;24.708;2023-04-27T07:42:13;99216.47;;;16.02;53.06
2681;BME280;1350;42.134;24.708;2023-04-27T07:44:40;99219.00;;;16.26;52.34
2681;BME280;1350;42.134;24.708;2023-04-27T07:47:07;99217.28;;;16.47;51.47
2681;BME280;1350;42.134;24.708;2023-04-27T07:49:34;99218.75;;;16.51;51.56
2681;BME280;1350;42.134;24.708;2023-04-27T07:52:01;99214.03;;;16.21;51.59
2681;BME280;1350;42.134;24.708;2023-04-27T07:54:29;99213.38;;;16.51;50.39
2681;BME280;1350;42.134;24.708;2023-04-27T07:56:55;99212.63;;;16.60;50.66
2681;BME280;1350;42.134;24.708;2023-04-27T07:59:23;99209.88;;;16.82;50.17
2681;BME280;1350;42.134;24.708;2023-04-27T08:01:50;99220.75;;;17.22;49.41
2681;BME280;1350;42.134;24.708;2023-04-27T08:04:17;99208.56;;;17.18;48.69
2681;BME280;1350;42.134;24.708;2023-04-27T08:06:44;99204.81;;;17.20;48.26
2681;BME280;1350;42.134;24.708;2023-04-27T08:09:11;99210.16;;;17.20;48.30
2681;BME280;1350;42.134;24.708;2023-04-27T08:11:38;99212.59;;;17.44;48.14
2681;BME280;1350;42.134;24.708;2023-04-27T08:14:04;99212.50;;;17.55;47.58
2681;BME280;1350;42.134;24.708;2023-04-27T08:16:34;99203.38;;;17.57;47.37
2681;BME280;1350;42.134;24.708;2023-04-27T08:19:02;99200.59;;;17.68;50.91
2681;BME280;1350;42.134;24.708;2023-04-27T08:21:28;99205.00;;;18.09;51.20
2681;BME280;1350;42.134;24.708;2023-04-27T08:23:55;99190.66;;;18.29;53.83
2681;BME280;1350;42.134;24.708;2023-04-27T08:26:22;99190.59;;;18.50;51.26
2681;BME280;1350;42.134;24.708;2023-04-27T08:28:48;99195.84;;;18.89;48.51
2681;BME280;1350;42.134;24.708;2023-04-27T08:31:15;99181.94;;;19.13;46.29
2681;BME280;1350;42.134;24.708;2023-04-27T08:33:43;99188.31;;;19.40;46.90
2681;BME280;1350;42.134;24.708;2023-04-27T08:36:11;99192.38;;;19.54;46.31
2681;BME280;1350;42.134;24.708;2023-04-27T08:38:37;99183.09;;;19.01;45.88
2681;BME280;1350;42.134;24.708;2023-04-27T08:41:06;99183.09;;;19.10;45.90
2681;BME280;1350;42.134;24.708;2023-04-27T08:43:33;99196.09;;;19.34;45.67
2681;BME280;1350;42.134;24.708;2023-04-27T08:46:01;99182.53;;;19.35;44.02
2681;BME280;1350;42.134;24.708;2023-04-27T08:48:28;99175.56;;;19.42;43.86
2681;BME280;1350;42.134;24.708;2023-04-27T08:50:58;99177.13;;;19.07;44.36
2681;BME280;1350;42.134;24.708;2023-04-27T08:53:27;99173.72;;;19.43;44.67
2681;BME280;1350;42.134;24.708;2023-04-27T08:55:55;99167.75;;;19.49;44.55
2681;BME280;1350;42.134;24.708;2023-04-27T08:58:22;99178.81;;;19.46;44.10
2681;BME280;1350;42.134;24.708;2023-04-27T09:01:04;99163.84;;;19.70;43.42
2681;BME280;1350;42.134;24.708;2023-04-27T09:03:31;99167.59;;;20.24;43.63
2681;BME280;1350;42.134;24.708;2023-04-27T09:06:00;99160.38;;;20.24;43.08
2681;BME280;1350;42.134;24.708;2023-04-27T09:08:27;99165.25;;;20.38;43.63
2681;BME280;1350;42.134;24.708;2023-04-27T09:10:53;99171.59;;;20.20;43.36
2681;BME280;1350;42.134;24.708;2023-04-27T09:13:20;99166.81;;;19.77;43.09
2681;BME280;1350;42.134;24.708;2023-04-27T09:15:48;99162.00;;;20.35;42.47
2681;BME280;1350;42.134;24.708;2023-04-27T09:18:17;99161.41;;;20.76;40.90
2681;BME280;1350;42.134;24.708;2023-04-27T09:20:44;99155.09;;;20.85;42.19
2681;BME280;1350;42.134;24.708;2023-04-27T09:23:24;99154.09;;;20.51;41.35
2681;BME280;1350;42.134;24.708;2023-04-27T09:25:52;99160.78;;;20.47;40.94
2681;BME280;1350;42.134;24.708;2023-04-27T09:28:19;99167.13;;;20.28;41.65
2681;BME280;1350;42.134;24.708;2023-04-27T09:30:51;99168.59;;;20.23;40.36
2681;BME280;1350;42.134;24.708;2023-04-27T09:33:23;99163.50;;;20.20;41.92
2681;BME280;1350;42.134;24.708;2023-04-27T09:35:50;99153.84;;;20.44;41.48
2681;BME280;1350;42.134;24.708;2023-04-27T09:38:20;99154.41;;;20.65;40.93
2681;BME280;1350;42.134;24.708;2023-04-27T09:40:48;99145.41;;;21.09;41.36
2681;BME280;1350;42.134;24.708;2023-04-27T09:43:15;99140.63;;;20.51;40.67
2681;BME280;1350;42.134;24.708;2023-04-27T09:45:42;99154.28;;;20.22;41.02
2681;BME280;1350;42.134;24.708;2023-04-27T09:48:11;99141.31;;;20.08;41.91
2681;BME280;1350;42.134;24.708;2023-04-27T09:50:40;99145.63;;;20.63;41.33
2681;BME280;1350;42.134;24.708;2023-04-27T09:53:08;99146.78;;;20.96;41.51
2681;BME280;1350;42.134;24.708;2023-04-27T09:55:39;99143.16;;;20.87;40.19
2681;BME280;1350;42.134;24.708;2023-04-27T09:58:20;99150.84;;;20.47;41.35
2681;BME280;1350;42.134;24.708;2023-04-27T10:00:59;99155.13;;;20.23;40.87
2681;BME280;1350;42.134;24.708;2023-04-27T10:03:32;99149.88;;;19.94;40.66
2681;BME280;1350;42.134;24.708;2023-04-27T10:09:08;99138.47;;;20.89;40.38
2681;BME280;1350;42.134;24.708;2023-04-27T10:11:40;99143.59;;;21.18;40.46
2681;BME280;1350;42.134;24.708;2023-04-27T10:14:09;99138.59;;;21.05;39.88
2681;BME280;1350;42.134;24.708;2023-04-27T10:16:43;99146.91;;;20.94;40.49
2681;BME280;1350;42.134;24.708;2023-04-27T10:19:11;99142.06;;;20.28;40.92
2681;BME280;1350;42.134;24.708;2023-04-27T10:21:40;99142.88;;;20.28;41.41
2681;BME280;1350;42.134;24.708;2023-04-27T10:24:16;99142.69;;;20.12;40.69
2681;BME280;1350;42.134;24.708;2023-04-27T10:26:47;99139.59;;;19.80;41.58
2681;BME280;1350;42.134;24.708;2023-04-27T10:29:14;99141.06;;;19.19;43.03
2681;BME280;1350;42.134;24.708;2023-04-27T10:31:42;99149.72;;;19.03;44.67
2681;BME280;1350;42.134;24.708;2023-04-27T10:34:10;99150.53;;;19.13;45.46
2681;BME280;1350;42.134;24.708;2023-04-27T10:36:41;99155.25;;;18.92;45.65
2681;BME280;1350;42.134;24.708;2023-04-27T10:39:15;99153.97;;;18.68;46.07
2681;BME280;1350;42.134;24.708;2023-04-27T10:41:51;99154.81;;;18.78;45.58
2681;BME280;1350;42.134;24.708;2023-04-27T10:44:23;99151.53;;;19.22;43.82
2681;BME280;1350;42.134;24.708;2023-04-27T10:46:51;99150.22;;;19.45;42.78
2681;BME280;1350;42.134;24.708;2023-04-27T10:49:18;99145.81;;;19.53;43.25
2681;BME280;1350;42.134;24.708;2023-04-27T10:51:45;99154.91;;;19.43;43.03
2681;BME280;1350;42.134;24.708;2023-04-27T10:54:12;99167.34;;;19.44;43.90
2681;BME280;1350;42.134;24.708;2023-04-27T10:56:39;99161.06;;;18.97;44.15
2681;BME280;1350;42.134;24.708;2023-04-27T10:59:08;99162.88;;;19.16;43.72
2681;BME280;1350;42.134;24.708;2023-04-27T11:01:35;99157.91;;;19.30;42.47
2681;BME280;1350;42.134;24.708;2023-04-27T11:04:02;99165.94;;;19.11;42.24
2681;BME280;1350;42.134;24.708;2023-04-27T11:06:30;99161.03;;;18.69;43.40
2681;BME280;1350;42.134;24.708;2023-04-27T11:08:58;99163.72;;;18.97;43.11
2681;BME280;1350;42.134;24.708;2023-04-27T11:11:25;99170.06;;;19.06;42.40
2681;BME280;1350;42.134;24.708;2023-04-27T11:13:52;99155.25;;;18.92;43.64
2681;BME280;1350;42.134;24.708;2023-04-27T11:16:21;99155.81;;;18.96;44.04
2681;BME280;1350;42.134;24.708;2023-04-27T11:18:48;99165.72;;;18.95;43.23
2681;BME280;1350;42.134;24.708;2023-04-27T11:21:16;99162.72;;;18.89;41.28
2681;BME280;1350;42.134;24.708;2023-04-27T11:23:45;99169.25;;;18.96;41.92
2681;BME280;1350;42.134;24.708;2023-04-27T11:26:13;99171.38;;;19.02;42.22
2681;BME280;1350;42.134;24.708;2023-04-27T11:28:40;99173.34;;;19.00;41.28
2681;BME280;1350;42.134;24.708;2023-04-27T11:31:07;99180.28;;;18.93;40.29
2681;BME280;1350;42.134;24.708;2023-04-27T11:33:35;99178.56;;;18.54;41.09
2681;BME280;1350;42.134;24.708;2023-04-27T11:36:15;99169.66;;;18.63;40.97
2681;BME280;1350;42.134;24.708;2023-04-27T11:38:41;99177.88;;;18.71;41.17
2681;BME280;1350;42.134;24.708;2023-04-27T11:41:08;99180.13;;;18.75;41.25
2681;BME280;1350;42.134;24.708;2023-04-27T11:43:39;99172.09;;;18.94;40.82
2681;BME280;1350;42.134;24.708;2023-04-27T11:46:06;99168.25;;;19.06;41.06
2681;BME280;1350;42.134;24.708;2023-04-27T11:48:37;99172.59;;;19.26;40.82
2681;BME280;1350;42.134;24.708;2023-04-27T11:51:04;99170.47;;;19.76;40.33
2681;BME280;1350;42.134;24.708;2023-04-27T11:53:32;99170.63;;;20.11;38.92
2681;BME280;1350;42.134;24.708;2023-04-27T11:55:59;99169.47;;;19.86;38.97
2681;BME280;1350;42.134;24.708;2023-04-27T11:58:27;99171.19;;;19.78;38.70
2681;BME280;1350;42.134;24.708;2023-04-27T12:00:55;99159.56;;;19.77;39.31
2681;BME280;1350;42.134;24.708;2023-04-27T12:03:23;99166.94;;;20.12;39.72
2681;BME280;1350;42.134;24.708;2023-04-27T12:05:51;99163.34;;;20.66;38.53
2681;BME280;1350;42.134;24.708;2023-04-27T12:08:18;99164.72;;;20.87;38.66
2681;BME280;1350;42.134;24.708;2023-04-27T12:10:46;99168.56;;;20.67;37.55
2681;BME280;1350;42.134;24.708;2023-04-27T12:13:12;99166.72;;;20.33;38.61
2681;BME280;1350;42.134;24.708;2023-04-27T12:15:40;99161.75;;;20.28;38.73
2681;BME280;1350;42.134;24.708;2023-04-27T12:18:08;99161.53;;;20.39;38.01
2681;BME280;1350;42.134;24.708;2023-04-27T12:20:35;99161.00;;;20.53;37.49
2681;BME280;1350;42.134;24.708;2023-04-27T12:23:03;99157.47;;;20.35;37.55
2681;BME280;1350;42.134;24.708;2023-04-27T12:25:30;99169.66;;;20.30;38.61
2681;BME280;1350;42.134;24.708;2023-04-27T12:27:57;99158.56;;;19.88;37.59
2681;BME280;1350;42.134;24.708;2023-04-27T12:30:23;99162.66;;;19.82;37.64
2681;BME280;1350;42.134;24.708;2023-04-27T12:32:50;99163.25;;;20.13;37.04
2681;BME280;1350;42.134;24.708;2023-04-27T12:35:17;99157.47;;;20.35;36.72
2681;BME280;1350;42.134;24.708;2023-04-27T12:37:44;99157.25;;;20.46;37.00
2681;BME280;1350;42.134;24.708;2023-04-27T12:40:17;99149.94;;;20.56;36.89
2681;BME280;1350;42.134;24.708;2023-04-27T12:42:45;99131.50;;;20.87;36.97
2681;BME280;1350;42.134;24.708;2023-04-27T12:45:11;99141.50;;;20.94;36.48
2681;BME280;1350;42.134;24.708;2023-04-27T12:47:38;99146.09;;;20.76;36.23
2681;BME280;1350;42.134;24.708;2023-04-27T12:50:08;99140.66;;;20.24;35.74
2681;BME280;1350;42.134;24.708;2023-04-27T12:52:35;99147.94;;;19.86;36.26
2681;BME280;1350;42.134;24.708;2023-04-27T12:55:02;99144.91;;;19.62;37.43
2681;BME280;1350;42.134;24.708;2023-04-27T12:57:31;99150.47;;;19.51;38.68
2681;BME280;1350;42.134;24.708;2023-04-27T12:59:58;99156.75;;;19.33;37.93
2681;BME280;1350;42.134;24.708;2023-04-27T13:02:25;99152.78;;;19.18;38.72
2681;BME280;1350;42.134;24.708;2023-04-27T13:04:52;99150.84;;;19.10;38.21
2681;BME280;1350;42.134;24.708;2023-04-27T13:07:19;99155.19;;;19.21;39.08
2681;BME280;1350;42.134;24.708;2023-04-27T13:09:46;99140.94;;;19.20;39.38
2681;BME280;1350;42.134;24.708;2023-04-27T13:12:13;99150.00;;;19.00;39.45
2681;BME280;1350;42.134;24.708;2023-04-27T13:14:41;99140.69;;;18.76;38.43